createdAt,value
2023-07-17T00:01:24.776Z,19.63
2023-07-17T00:04:07.651Z,21.70
2023-07-17T00:09:38.343Z,20.27
2023-07-17T00:12:14.832Z,23.33
2023-07-17T00:14:50.036Z,21.60
2023-07-17T00:17:28.064Z,19.33
2023-07-17T00:20:04.036Z,22.50
2023-07-17T00:22:40.772Z,23.10
2023-07-17T00:25:17.658Z,21.55
2023-07-17T00:27:52.465Z,19.88
2023-07-17T00:30:28.639Z,17.80
2023-07-17T00:33:06.014Z,19.70
2023-07-17T00:35:41.574Z,20.83
2023-07-17T00:38:17.766Z,18.10
2023-07-17T00:40:53.703Z,23.83
2023-07-17T00:43:28.271Z,19.00
2023-07-17T00:46:06.185Z,15.95
2023-07-17T00:48:43.225Z,17.85
2023-07-17T00:51:19.449Z,17.17
2023-07-17T00:53:57.484Z,14.25
2023-07-17T00:56:35.855Z,13.45
2023-07-17T00:59:14.583Z,16.83
2023-07-17T01:01:49.876Z,15.40
2023-07-17T01:04:27.759Z,15.73
2023-07-17T01:07:03.747Z,11.93
2023-07-17T01:09:39.753Z,14.52
2023-07-17T01:12:17.156Z,14.50
2023-07-17T01:14:53.301Z,15.43
2023-07-17T01:17:29.903Z,14.82
2023-07-17T01:20:08.170Z,30.05
2023-07-17T01:22:51.038Z,16.60
2023-07-17T01:25:31.148Z,15.38
2023-07-17T01:28:06.102Z,15.05
2023-07-17T01:30:43.393Z,13.52
2023-07-17T01:33:18.246Z,14.60
2023-07-17T01:35:53.038Z,14.25
2023-07-17T01:38:31.182Z,10.45
2023-07-17T01:41:08.142Z,10.52
2023-07-17T01:43:49.110Z,10.60
2023-07-17T01:46:24.614Z,16.52
2023-07-17T01:49:01.555Z,14.93
2023-07-17T01:51:36.105Z,14.88
2023-07-17T01:54:12.221Z,14.93
2023-07-17T01:56:48.710Z,15.68
2023-07-17T01:59:24.028Z,19.50
2023-07-17T02:02:01.998Z,14.48
2023-07-17T02:04:36.965Z,23.30
2023-07-17T02:07:18.587Z,20.48
2023-07-17T02:09:54.802Z,19.83
2023-07-17T02:12:31.387Z,17.48
2023-07-17T02:15:07.659Z,18.05
2023-07-17T02:17:45.916Z,13.02
2023-07-17T02:20:20.708Z,10.15
2023-07-17T02:22:55.851Z,11.45
2023-07-17T02:25:31.744Z,11.02
2023-07-17T02:28:11.494Z,10.27
2023-07-17T02:30:46.316Z,10.18
2023-07-17T02:33:24.470Z,8.05
2023-07-17T02:36:00.328Z,8.50
2023-07-17T02:38:35.095Z,8.68
2023-07-17T02:41:10.966Z,8.68
2023-07-17T02:43:47.427Z,11.90
2023-07-17T02:46:22.258Z,7.35
2023-07-17T02:48:59.579Z,6.25
2023-07-17T02:51:36.158Z,6.70
2023-07-17T02:54:11.450Z,8.35
2023-07-17T02:56:47.169Z,11.30
2023-07-17T02:59:24.101Z,10.93
2023-07-17T03:02:01.880Z,11.90
2023-07-17T03:04:36.541Z,9.43
2023-07-17T03:07:12.670Z,12.15
2023-07-17T03:09:51.233Z,9.88
2023-07-17T03:12:27.464Z,10.40
2023-07-17T03:15:06.762Z,11.38
2023-07-17T03:17:41.726Z,11.00
2023-07-17T03:20:17.804Z,13.75
2023-07-17T03:22:54.046Z,9.70
2023-07-17T03:25:29.562Z,8.73
2023-07-17T03:28:04.408Z,8.80
2023-07-17T03:30:41.894Z,9.90
2023-07-17T03:33:18.530Z,10.27
2023-07-17T03:35:55.255Z,10.65
2023-07-17T03:38:30.206Z,9.27
2023-07-17T03:41:04.932Z,6.82
2023-07-17T03:43:40.081Z,10.30
2023-07-17T03:46:16.884Z,8.95
2023-07-17T03:48:53.140Z,6.43
2023-07-17T03:51:29.603Z,10.48
2023-07-17T03:54:05.893Z,8.10
2023-07-17T03:56:45.045Z,8.88
2023-07-17T03:59:23.935Z,8.20
2023-07-17T04:02:01.381Z,8.43
2023-07-17T04:04:37.749Z,11.20
2023-07-17T04:07:15.413Z,12.98
2023-07-17T04:09:53.330Z,7.60
2023-07-17T04:12:27.862Z,10.55
2023-07-17T04:15:06.799Z,11.07
2023-07-17T04:17:47.388Z,8.25
2023-07-17T04:20:25.323Z,10.10
2023-07-17T04:23:00.720Z,9.45
2023-07-17T04:25:37.228Z,11.88
2023-07-17T04:28:11.865Z,10.43
2023-07-17T04:30:48.276Z,10.32
2023-07-17T04:33:25.418Z,13.80
2023-07-17T04:36:07.652Z,9.40
2023-07-17T04:38:43.403Z,11.63
2023-07-17T04:41:19.297Z,9.45
2023-07-17T04:43:55.538Z,9.65
2023-07-17T04:46:30.999Z,7.78
2023-07-17T04:49:07.462Z,10.15
2023-07-17T04:51:43.590Z,10.23
2023-07-17T04:54:19.073Z,10.40
2023-07-17T04:56:54.119Z,11.43
2023-07-17T04:59:30.484Z,10.57
2023-07-17T05:02:10.555Z,12.10
2023-07-17T05:04:52.127Z,11.45
2023-07-17T05:07:29.226Z,12.98
2023-07-17T05:10:04.427Z,10.60
2023-07-17T05:12:41.146Z,9.27
2023-07-17T05:15:19.240Z,9.18
2023-07-17T05:17:54.148Z,10.50
2023-07-17T05:20:31.333Z,12.63
2023-07-17T05:23:06.430Z,10.20
2023-07-17T05:25:41.234Z,12.27
2023-07-17T05:28:16.181Z,10.85
2023-07-17T05:30:51.359Z,10.73
2023-07-17T05:33:27.913Z,9.63
2023-07-17T05:36:05.418Z,7.90
2023-07-17T05:38:40.402Z,9.75
2023-07-17T05:41:16.860Z,10.88
2023-07-17T05:43:53.266Z,10.43
2023-07-17T05:46:30.646Z,8.55
2023-07-17T05:49:11.144Z,10.23
2023-07-17T05:51:48.020Z,6.80
2023-07-17T05:54:24.442Z,8.23
2023-07-17T05:56:59.060Z,12.25
2023-07-17T05:59:34.135Z,9.57
2023-07-17T06:02:09.037Z,11.50
2023-07-17T06:04:44.600Z,9.27
2023-07-17T06:07:23.844Z,8.10
2023-07-17T06:10:01.760Z,10.43
2023-07-17T06:12:36.290Z,11.52
2023-07-17T06:15:13.852Z,8.57
2023-07-17T06:17:48.458Z,8.02
2023-07-17T06:20:23.983Z,8.48
2023-07-17T06:23:00.616Z,9.65
2023-07-17T06:25:37.532Z,9.80
2023-07-17T06:28:12.056Z,11.40
2023-07-17T06:30:47.109Z,10.45
2023-07-17T06:33:21.951Z,10.30
2023-07-17T06:35:57.087Z,12.93
2023-07-17T06:38:33.828Z,9.70
2023-07-17T06:41:13.188Z,7.22
2023-07-17T06:43:51.037Z,8.20
2023-07-17T06:46:26.026Z,7.75
2023-07-17T06:49:00.937Z,7.90
2023-07-17T06:51:35.827Z,8.13
2023-07-17T06:54:13.237Z,9.85
2023-07-17T06:56:48.769Z,9.40
2023-07-17T06:59:23.282Z,9.43
2023-07-17T07:01:59.342Z,9.18
2023-07-17T07:04:35.238Z,8.48
2023-07-17T07:07:10.258Z,8.40
2023-07-17T07:09:47.516Z,9.88
2023-07-17T07:12:23.188Z,11.35
2023-07-17T07:14:57.702Z,10.07
2023-07-17T07:17:39.435Z,10.00
2023-07-17T07:20:17.619Z,10.57
2023-07-17T07:22:52.548Z,14.38
2023-07-17T07:25:29.057Z,10.60
2023-07-17T07:28:04.371Z,11.85
2023-07-17T07:30:39.316Z,10.45
2023-07-17T07:33:17.059Z,7.70
2023-07-17T07:35:53.724Z,9.32
2023-07-17T07:38:28.536Z,11.30
2023-07-17T07:41:08.218Z,10.00
2023-07-17T07:43:43.266Z,8.55
2023-07-17T07:46:21.447Z,13.07
2023-07-17T07:48:57.327Z,8.85
2023-07-17T07:51:32.130Z,8.10
2023-07-17T07:54:08.153Z,11.88
2023-07-17T07:56:45.711Z,12.15
2023-07-17T07:59:23.137Z,10.23
2023-07-17T08:02:00.376Z,7.85
2023-07-17T08:04:35.465Z,15.45
2023-07-17T08:07:13.191Z,6.90
2023-07-17T08:09:50.051Z,9.27
2023-07-17T08:12:26.525Z,8.55
2023-07-17T08:15:01.429Z,9.85
2023-07-17T08:17:37.999Z,11.90
2023-07-17T08:20:13.492Z,8.82
2023-07-17T08:22:50.636Z,11.23
2023-07-17T08:25:26.250Z,8.57
2023-07-17T08:28:02.724Z,7.13
2023-07-17T08:30:38.981Z,10.27
2023-07-17T08:33:15.495Z,9.50
2023-07-17T08:35:53.836Z,12.02
2023-07-17T08:38:30.048Z,7.25
2023-07-17T08:41:06.451Z,8.98
2023-07-17T08:43:44.322Z,14.65
2023-07-17T08:46:23.303Z,13.38
2023-07-17T08:48:57.976Z,10.35
2023-07-17T08:51:37.230Z,9.88
2023-07-17T08:54:27.098Z,10.95
2023-07-17T08:57:08.867Z,9.40
2023-07-17T08:59:48.480Z,9.02
2023-07-17T09:02:24.285Z,12.15
2023-07-17T09:04:59.124Z,8.18
2023-07-17T09:07:36.708Z,12.13
2023-07-17T09:10:22.099Z,7.13
2023-07-17T09:12:57.687Z,8.75
2023-07-17T09:15:34.930Z,12.32
2023-07-17T09:18:11.603Z,12.80
2023-07-17T09:20:49.300Z,8.50
2023-07-17T09:23:24.145Z,9.45
2023-07-17T09:25:59.536Z,11.63
2023-07-17T09:28:36.498Z,10.20
2023-07-17T09:31:13.919Z,12.93
2023-07-17T09:33:48.989Z,9.30
2023-07-17T09:36:27.480Z,9.95
2023-07-17T09:39:05.871Z,14.25
2023-07-17T09:41:40.815Z,9.50
2023-07-17T09:44:15.611Z,14.63
2023-07-17T09:46:52.451Z,10.70
2023-07-17T09:49:27.506Z,12.15
2023-07-17T09:52:03.473Z,9.45
2023-07-17T09:54:42.309Z,17.88
2023-07-17T09:57:21.112Z,12.18
2023-07-17T10:02:53.757Z,12.43
2023-07-17T10:05:28.943Z,15.77
2023-07-17T10:08:05.075Z,14.32
2023-07-17T10:10:40.521Z,14.43
2023-07-17T10:13:15.346Z,16.13
2023-07-17T10:15:50.383Z,13.75
2023-07-17T10:18:29.066Z,17.58
2023-07-17T10:21:07.054Z,12.13
2023-07-17T10:23:43.624Z,11.63
2023-07-17T10:26:19.616Z,10.93
2023-07-17T10:28:54.954Z,11.80
2023-07-17T10:31:31.437Z,11.07
2023-07-17T10:34:08.983Z,15.18
2023-07-17T10:36:49.791Z,14.50
2023-07-17T10:39:25.251Z,10.75
2023-07-17T10:42:00.065Z,14.23
2023-07-17T10:44:41.604Z,17.13
2023-07-17T10:47:16.418Z,11.55
2023-07-17T10:49:56.965Z,8.77
2023-07-17T10:52:34.833Z,10.55
2023-07-17T10:55:12.797Z,8.35
2023-07-17T10:57:48.315Z,9.88
2023-07-17T11:00:26.316Z,8.15
2023-07-17T11:03:01.945Z,10.05
2023-07-17T11:05:42.686Z,9.07
2023-07-17T11:08:19.055Z,10.23
2023-07-17T11:10:55.468Z,11.57
2023-07-17T11:13:36.245Z,9.57
2023-07-17T11:16:15.405Z,9.15
2023-07-17T11:18:50.878Z,6.70
2023-07-17T11:21:29.443Z,10.85
2023-07-17T11:24:04.642Z,12.30
2023-07-17T11:26:40.176Z,11.20
2023-07-17T11:29:15.090Z,11.75
2023-07-17T11:31:51.653Z,9.05
2023-07-17T11:34:27.663Z,13.45
2023-07-17T11:37:09.163Z,8.40
2023-07-17T11:39:44.446Z,10.40
2023-07-17T11:42:19.137Z,10.85
2023-07-17T11:45:02.994Z,10.85
2023-07-17T11:47:38.670Z,9.82
2023-07-17T11:50:15.792Z,12.75
2023-07-17T11:52:52.586Z,8.30
2023-07-17T11:55:31.425Z,8.88
2023-07-17T11:58:06.085Z,15.07
2023-07-17T12:00:45.863Z,10.40
2023-07-17T12:03:21.158Z,8.18
2023-07-17T12:06:02.101Z,10.90
2023-07-17T12:08:44.502Z,12.02
2023-07-17T12:11:22.428Z,7.22
2023-07-17T12:13:57.470Z,12.25
2023-07-17T12:16:32.445Z,12.00
2023-07-17T12:19:08.523Z,8.75
2023-07-17T12:21:43.897Z,11.25
2023-07-17T12:24:21.441Z,11.55
2023-07-17T12:26:56.431Z,9.98
2023-07-17T12:29:31.032Z,13.38
2023-07-17T12:32:07.013Z,6.38
2023-07-17T12:34:42.032Z,9.98
2023-07-17T12:37:19.337Z,9.88
2023-07-17T12:40:01.519Z,13.25
2023-07-17T12:42:37.534Z,12.80
2023-07-17T12:45:13.314Z,14.63
2023-07-17T12:47:48.371Z,9.27
2023-07-17T12:50:25.434Z,13.18
2023-07-17T12:53:03.212Z,8.32
2023-07-17T12:55:39.897Z,7.78
2023-07-17T12:58:16.694Z,10.57
2023-07-17T13:00:54.539Z,7.97
2023-07-17T13:03:35.733Z,8.80
2023-07-17T13:06:13.435Z,9.85
2023-07-17T13:08:51.244Z,9.95
2023-07-17T13:11:32.915Z,12.05
2023-07-17T13:14:09.086Z,9.65
2023-07-17T13:16:43.611Z,9.27
2023-07-17T13:19:27.605Z,10.82
2023-07-17T13:22:03.400Z,8.48
2023-07-17T13:24:39.661Z,10.70
2023-07-17T13:27:22.283Z,9.77
2023-07-17T13:29:59.027Z,7.97
2023-07-17T13:32:36.345Z,8.90
2023-07-17T13:35:11.623Z,10.35
2023-07-17T13:37:46.227Z,7.85
2023-07-17T13:40:23.941Z,10.52
2023-07-17T13:43:01.466Z,10.25
2023-07-17T13:45:36.360Z,11.00
2023-07-17T13:48:11.179Z,10.05
2023-07-17T13:50:46.047Z,8.20
2023-07-17T13:53:22.045Z,10.80
2023-07-17T13:55:56.871Z,8.88
2023-07-17T13:58:33.293Z,11.82
2023-07-17T14:01:10.305Z,9.75
2023-07-17T14:03:48.352Z,10.23
2023-07-17T14:06:24.289Z,10.82
2023-07-17T14:08:59.138Z,8.52
2023-07-17T14:11:36.721Z,9.50
2023-07-17T14:14:16.563Z,8.90
2023-07-17T14:16:54.182Z,9.63
2023-07-17T14:19:29.550Z,10.90
2023-07-17T14:22:08.102Z,9.70
2023-07-17T14:24:44.844Z,9.48
2023-07-17T14:27:20.743Z,9.32
2023-07-17T14:29:57.631Z,11.80
2023-07-17T14:32:33.926Z,10.88
2023-07-17T14:35:14.808Z,9.73
2023-07-17T14:37:54.940Z,9.57
2023-07-17T14:40:29.455Z,9.52
2023-07-17T14:43:06.138Z,11.27
2023-07-17T14:45:44.358Z,9.48
2023-07-17T14:48:24.824Z,9.88
2023-07-17T14:51:00.549Z,9.90
2023-07-17T14:53:38.371Z,10.63
2023-07-17T14:56:13.606Z,12.63
2023-07-17T14:58:49.385Z,11.77
2023-07-17T15:01:26.465Z,9.60
2023-07-17T15:04:04.430Z,11.18
2023-07-17T15:06:39.045Z,9.45
2023-07-17T15:09:14.863Z,9.40
2023-07-17T15:11:50.661Z,13.15
2023-07-17T15:14:27.728Z,9.30
2023-07-17T15:17:04.328Z,11.15
2023-07-17T15:19:43.864Z,10.00
2023-07-17T15:22:18.391Z,9.40
2023-07-17T15:24:53.206Z,8.35
2023-07-17T15:27:28.136Z,10.40
2023-07-17T15:30:03.066Z,10.20
2023-07-17T15:32:39.741Z,10.13
2023-07-17T15:35:14.912Z,9.07
2023-07-17T15:37:50.501Z,9.38
2023-07-17T15:40:26.345Z,6.88
2023-07-17T15:43:06.283Z,11.80
2023-07-17T15:45:48.510Z,11.35
2023-07-17T15:48:25.226Z,10.25
2023-07-17T15:51:09.040Z,9.07
2023-07-17T15:53:47.636Z,7.55
2023-07-17T15:56:22.637Z,9.02
2023-07-17T15:58:57.624Z,7.00
2023-07-17T16:01:34.041Z,9.95
2023-07-17T16:04:10.674Z,7.90
2023-07-17T16:06:50.906Z,9.27
2023-07-17T16:09:27.836Z,7.55
2023-07-17T16:12:02.647Z,8.65
2023-07-17T16:14:37.850Z,8.20
2023-07-17T16:17:13.060Z,8.25
2023-07-17T16:19:54.016Z,9.57
2023-07-17T16:22:37.224Z,9.38
2023-07-17T16:25:12.240Z,7.68
2023-07-17T16:27:47.294Z,8.82
2023-07-17T16:30:21.832Z,10.88
2023-07-17T16:32:59.877Z,9.35
2023-07-17T16:35:39.263Z,10.50
2023-07-17T16:38:15.534Z,9.32
2023-07-17T16:40:51.264Z,8.95
2023-07-17T16:43:28.525Z,9.43
2023-07-17T16:46:04.705Z,7.40
2023-07-17T16:48:40.870Z,9.40
2023-07-17T16:51:17.321Z,10.90
2023-07-17T16:53:53.091Z,10.65
2023-07-17T16:56:27.604Z,8.98
2023-07-17T16:59:02.551Z,10.27
2023-07-17T17:01:38.451Z,7.32
2023-07-17T17:04:13.383Z,7.60
2023-07-17T17:06:49.843Z,7.72
2023-07-17T17:09:24.804Z,10.55
2023-07-17T17:12:02.040Z,7.25
2023-07-17T17:14:37.869Z,8.73
2023-07-17T17:17:15.801Z,9.55
2023-07-17T17:19:51.976Z,10.55
2023-07-17T17:22:32.490Z,7.88
2023-07-17T17:25:07.833Z,10.95
2023-07-17T17:27:42.469Z,7.90
2023-07-17T17:30:18.672Z,9.95
2023-07-17T17:32:54.749Z,7.68
2023-07-17T17:35:30.387Z,9.35
2023-07-17T17:38:08.813Z,9.70
2023-07-17T17:40:46.773Z,10.60
2023-07-17T17:43:21.293Z,10.25
2023-07-17T17:45:59.213Z,9.57
2023-07-17T17:48:36.746Z,10.32
2023-07-17T17:51:12.969Z,9.88
2023-07-17T17:53:49.744Z,7.93
2023-07-17T17:56:24.564Z,12.13
2023-07-17T17:59:00.208Z,9.88
2023-07-17T18:01:36.738Z,9.07
2023-07-17T18:04:13.100Z,10.65
2023-07-17T18:06:48.053Z,7.30
2023-07-17T18:09:24.714Z,8.00
2023-07-17T18:12:00.600Z,8.88
2023-07-17T18:14:36.679Z,8.93
2023-07-17T18:17:11.651Z,7.15
2023-07-17T18:19:46.909Z,7.97
2023-07-17T18:22:21.714Z,8.25
2023-07-17T18:24:59.010Z,6.45
2023-07-17T18:27:34.020Z,8.32
2023-07-17T18:30:09.021Z,11.30
2023-07-17T18:32:43.982Z,11.52
2023-07-17T18:35:18.678Z,8.10
2023-07-17T18:37:53.642Z,8.77
2023-07-17T18:40:31.486Z,8.48
2023-07-17T18:43:06.452Z,8.48
2023-07-17T18:45:41.405Z,6.75
2023-07-17T18:48:16.245Z,9.80
2023-07-17T18:50:55.509Z,9.15
2023-07-17T18:53:32.801Z,9.45
2023-07-17T18:56:10.734Z,9.57
2023-07-17T18:58:47.210Z,9.10
2023-07-17T19:01:24.316Z,10.35
2023-07-17T19:04:03.848Z,7.75
2023-07-17T19:06:39.052Z,10.18
2023-07-17T19:09:14.502Z,8.18
2023-07-17T19:11:51.037Z,10.55
2023-07-17T19:14:26.818Z,7.65
2023-07-17T19:17:02.903Z,8.68
2023-07-17T19:19:37.937Z,8.98
2023-07-17T19:22:20.684Z,8.20
2023-07-17T19:24:55.538Z,9.10
2023-07-17T19:27:35.245Z,11.68
2023-07-17T19:30:10.687Z,10.48
2023-07-17T19:32:47.837Z,7.88
2023-07-17T19:35:23.488Z,8.25
2023-07-17T19:37:59.039Z,11.80
2023-07-17T19:40:35.244Z,7.95
2023-07-17T19:43:12.885Z,12.43
2023-07-17T19:45:47.724Z,11.15
2023-07-17T19:48:22.409Z,9.85
2023-07-17T19:50:59.385Z,9.30
2023-07-17T19:53:35.583Z,11.13
2023-07-17T19:56:11.495Z,7.43
2023-07-17T19:59:00.638Z,9.85
2023-07-17T20:01:36.389Z,7.53
2023-07-17T20:04:13.589Z,8.20
2023-07-17T20:06:52.140Z,8.95
2023-07-17T20:09:26.659Z,9.70
2023-07-17T20:12:01.680Z,8.30
2023-07-17T20:14:40.503Z,9.80
2023-07-17T20:17:15.417Z,10.05
2023-07-17T20:19:50.024Z,7.70
2023-07-17T20:22:27.843Z,9.35
2023-07-17T20:25:02.681Z,7.95
2023-07-17T20:27:43.438Z,7.97
2023-07-17T20:30:20.556Z,12.13
2023-07-17T20:32:55.429Z,10.65
2023-07-17T20:35:30.648Z,10.25
2023-07-17T20:38:08.805Z,14.77
2023-07-17T20:40:43.543Z,14.30
2023-07-17T20:43:18.877Z,14.82
2023-07-17T20:45:58.074Z,13.93
2023-07-17T20:48:33.219Z,12.38
2023-07-17T20:51:13.298Z,10.43
2023-07-17T20:53:52.045Z,9.02
2023-07-17T20:56:26.680Z,10.30
2023-07-17T20:59:04.038Z,9.25
2023-07-17T21:01:46.683Z,8.65
2023-07-17T21:04:26.786Z,8.95
2023-07-17T21:07:07.838Z,11.50
2023-07-17T21:09:42.784Z,11.32
2023-07-17T21:12:19.599Z,9.75
2023-07-17T21:14:55.506Z,13.43
2023-07-17T21:17:34.772Z,11.13
2023-07-17T21:20:11.201Z,13.10
2023-07-17T21:22:46.951Z,12.60
2023-07-17T21:25:23.923Z,14.60
2023-07-17T21:28:00.086Z,14.30
2023-07-17T21:30:35.114Z,14.13
2023-07-17T21:33:14.703Z,17.60
2023-07-17T21:35:50.511Z,13.43
2023-07-17T21:38:28.787Z,16.60
2023-07-17T21:41:04.536Z,15.75
2023-07-17T21:43:53.493Z,13.10
2023-07-17T21:46:30.022Z,15.57
2023-07-17T21:49:10.813Z,12.23
2023-07-17T21:51:45.668Z,13.75
2023-07-17T21:54:24.636Z,13.65
2023-07-17T21:57:00.699Z,14.05
2023-07-17T21:59:36.464Z,14.23
2023-07-17T22:02:15.452Z,14.93
2023-07-17T22:04:52.955Z,16.08
2023-07-17T22:07:29.856Z,13.13
2023-07-17T22:10:09.374Z,11.35
2023-07-17T22:12:44.434Z,12.82
2023-07-17T22:15:21.798Z,18.85
2023-07-17T22:17:57.020Z,16.17
2023-07-17T22:20:37.365Z,15.00
2023-07-17T22:23:14.889Z,13.73
2023-07-17T22:25:50.914Z,18.67
2023-07-17T22:28:25.951Z,17.25
2023-07-17T22:31:00.666Z,14.20
2023-07-17T22:33:35.655Z,12.93
2023-07-17T22:36:25.293Z,14.07
2023-07-17T22:39:12.113Z,16.17
2023-07-17T22:41:51.148Z,15.65
2023-07-17T22:44:26.906Z,14.82
2023-07-17T22:47:05.020Z,15.10
2023-07-17T22:49:44.483Z,14.48
2023-07-17T22:52:23.926Z,17.48
2023-07-17T22:55:00.993Z,21.23
2023-07-17T22:57:35.493Z,18.30
2023-07-17T23:00:13.866Z,17.08
2023-07-17T23:02:52.508Z,18.63
2023-07-17T23:05:27.518Z,16.05
2023-07-17T23:08:07.483Z,15.40
2023-07-17T23:10:43.129Z,17.40
2023-07-17T23:13:18.998Z,20.33
2023-07-17T23:15:54.617Z,15.40
2023-07-17T23:18:29.923Z,15.68
2023-07-17T23:21:05.548Z,16.75
2023-07-17T23:23:44.883Z,16.23
2023-07-17T23:26:24.840Z,19.05
2023-07-17T23:29:04.033Z,15.35
2023-07-17T23:31:40.178Z,14.38
2023-07-17T23:34:18.641Z,12.38
2023-07-17T23:36:54.968Z,15.75
2023-07-17T23:39:31.995Z,20.30
2023-07-17T23:42:07.008Z,12.85
2023-07-17T23:44:41.583Z,13.15
2023-07-17T23:47:16.551Z,16.38
2023-07-17T23:49:54.163Z,13.20
2023-07-17T23:52:35.431Z,13.32
2023-07-17T23:55:15.779Z,10.35
2023-07-17T23:57:50.845Z,13.93
